createdAt,value
2023-03-17T00:01:56.082Z,56.12
2023-03-17T00:04:28.563Z,56.36
2023-03-17T00:06:59.912Z,56.36
2023-03-17T00:09:30.908Z,56.36
2023-03-17T00:12:01.854Z,56.23
2023-03-17T00:14:32.840Z,56.38
2023-03-17T00:17:03.848Z,56.66
2023-03-17T00:19:36.715Z,56.75
2023-03-17T00:22:18.194Z,56.61
2023-03-17T00:24:49.049Z,56.81
2023-03-17T00:27:20.684Z,56.68
2023-03-17T00:29:51.951Z,56.86
2023-03-17T00:32:23.800Z,56.72
2023-03-17T00:34:55.646Z,57.19
2023-03-17T00:37:26.597Z,56.94
2023-03-17T00:39:57.518Z,57.05
2023-03-17T00:42:29.910Z,57.08
2023-03-17T00:45:01.509Z,56.81
2023-03-17T00:47:32.916Z,57.11
2023-03-17T00:50:05.111Z,57.03
2023-03-17T00:52:36.093Z,56.97
2023-03-17T00:55:09.188Z,57.09
2023-03-17T00:57:40.662Z,57.23
2023-03-17T01:00:23.065Z,57.44
2023-03-17T01:02:55.929Z,57.30
2023-03-17T01:05:28.661Z,57.11
2023-03-17T01:07:59.901Z,57.51
2023-03-17T01:10:32.766Z,57.70
2023-03-17T01:13:04.577Z,57.72
2023-03-17T01:15:36.378Z,57.64
2023-03-17T01:18:07.420Z,57.48
2023-03-17T01:20:38.269Z,57.59
2023-03-17T01:23:10.639Z,57.80
2023-03-17T01:25:43.269Z,57.85
2023-03-17T01:28:18.080Z,57.92
2023-03-17T01:30:50.123Z,58.02
2023-03-17T01:33:22.376Z,57.95
2023-03-17T01:35:53.503Z,57.79
2023-03-17T01:38:24.862Z,57.83
2023-03-17T01:40:56.836Z,57.92
2023-03-17T01:43:31.781Z,57.87
2023-03-17T01:46:30.082Z,57.73
2023-03-17T01:49:07.979Z,57.95
2023-03-17T01:51:46.501Z,58.13
2023-03-17T01:54:23.283Z,58.06
2023-03-17T01:56:57.779Z,58.22
2023-03-17T01:59:34.500Z,58.28
2023-03-17T02:02:07.988Z,58.16
2023-03-17T02:04:40.357Z,58.26
2023-03-17T02:07:13.192Z,58.04
2023-03-17T02:09:46.168Z,58.18
2023-03-17T02:12:17.430Z,58.22
2023-03-17T02:14:48.385Z,58.38
2023-03-17T02:17:19.296Z,58.11
2023-03-17T02:19:50.629Z,58.24
2023-03-17T02:22:22.030Z,58.36
2023-03-17T02:24:55.872Z,58.50
2023-03-17T02:27:33.929Z,58.53
2023-03-17T02:30:06.613Z,58.72
2023-03-17T02:32:40.454Z,58.65
2023-03-17T02:35:13.486Z,58.58
2023-03-17T02:37:46.779Z,58.57
2023-03-17T02:40:18.797Z,58.62
2023-03-17T02:42:49.748Z,58.51
2023-03-17T02:45:20.963Z,58.61
2023-03-17T02:47:53.168Z,58.78
2023-03-17T02:50:27.954Z,58.72
2023-03-17T02:52:59.192Z,58.54
2023-03-17T02:55:30.203Z,58.60
2023-03-17T02:58:03.239Z,58.49
2023-03-17T03:00:35.022Z,58.48
2023-03-17T03:06:21.443Z,58.70
2023-03-17T03:09:07.325Z,58.58
2023-03-17T03:11:38.433Z,58.38
2023-03-17T03:14:09.854Z,58.35
2023-03-17T03:16:40.749Z,58.52
2023-03-17T03:19:11.630Z,58.59
2023-03-17T03:21:43.584Z,58.51
2023-03-17T03:24:16.911Z,58.45
2023-03-17T03:26:48.333Z,58.48
2023-03-17T03:29:19.126Z,58.59
2023-03-17T03:31:53.432Z,58.66
2023-03-17T03:34:54.101Z,58.41
2023-03-17T03:37:25.161Z,58.28
2023-03-17T03:39:56.610Z,58.55
2023-03-17T03:42:27.879Z,58.54
2023-03-17T03:45:02.591Z,58.55
2023-03-17T03:47:43.286Z,58.74
2023-03-17T03:50:15.285Z,58.71
2023-03-17T03:52:46.722Z,58.65
2023-03-17T03:55:17.952Z,58.86
2023-03-17T03:57:48.782Z,58.84
2023-03-17T04:00:21.153Z,58.93
2023-03-17T04:02:55.653Z,58.94
2023-03-17T04:05:26.876Z,59.00
2023-03-17T04:07:57.734Z,58.91
2023-03-17T04:10:29.980Z,58.85
2023-03-17T04:13:01.386Z,58.93
2023-03-17T04:15:35.277Z,59.01
2023-03-17T04:19:23.367Z,59.40
2023-03-17T04:21:54.756Z,59.51
2023-03-17T04:24:23.575Z,59.59
2023-03-17T04:26:51.865Z,59.64
2023-03-17T04:29:20.371Z,59.70
2023-03-17T04:31:49.816Z,59.81
2023-03-17T04:34:20.083Z,59.57
2023-03-17T04:36:50.980Z,59.52
2023-03-17T04:39:41.531Z,59.46
2023-03-17T04:42:10.748Z,59.45
2023-03-17T04:44:39.356Z,59.41
2023-03-17T04:47:17.579Z,59.48
2023-03-17T04:49:46.198Z,59.40
2023-03-17T04:52:14.561Z,59.53
2023-03-17T04:54:43.045Z,59.50
2023-03-17T04:57:12.013Z,59.60
2023-03-17T04:59:40.275Z,59.59
2023-03-17T05:02:08.748Z,59.77
2023-03-17T05:04:37.898Z,60.01
2023-03-17T05:07:07.180Z,60.18
2023-03-17T05:09:36.453Z,60.30
2023-03-17T05:12:07.967Z,60.05
2023-03-17T05:14:36.486Z,59.96
2023-03-17T05:17:05.533Z,60.02
2023-03-17T05:19:36.684Z,60.64
2023-03-17T05:22:05.370Z,61.93
2023-03-17T05:24:34.957Z,62.81
2023-03-17T05:27:03.728Z,62.49
2023-03-17T05:29:32.104Z,62.23
2023-03-17T05:32:00.690Z,61.55
2023-03-17T05:34:33.565Z,60.37
2023-03-17T05:37:02.969Z,59.54
2023-03-17T05:39:31.871Z,58.82
2023-03-17T05:42:00.313Z,58.01
2023-03-17T05:44:28.585Z,57.06
2023-03-17T05:46:59.193Z,56.40
2023-03-17T05:49:28.503Z,56.28
2023-03-17T05:52:04.606Z,55.86
2023-03-17T05:54:33.005Z,55.19
2023-03-17T05:57:01.497Z,54.47
2023-03-17T05:59:29.956Z,53.48
2023-03-17T06:01:58.364Z,52.73
2023-03-17T06:04:26.740Z,51.96
2023-03-17T06:06:57.274Z,50.75
2023-03-17T06:09:25.668Z,49.34
2023-03-17T06:11:54.069Z,48.38
2023-03-17T06:14:22.461Z,47.69
2023-03-17T06:16:50.859Z,46.61
2023-03-17T06:19:21.988Z,45.04
2023-03-17T06:21:54.478Z,43.78
2023-03-17T06:24:30.792Z,42.82
2023-03-17T06:26:59.513Z,42.75
2023-03-17T06:29:28.192Z,43.41
2023-03-17T06:32:01.495Z,44.85
2023-03-17T06:34:42.671Z,44.22
2023-03-17T06:37:11.663Z,44.66
2023-03-17T06:39:47.814Z,43.93
2023-03-17T06:42:16.611Z,43.08
2023-03-17T06:44:44.988Z,42.56
2023-03-17T06:47:13.747Z,42.54
2023-03-17T06:49:42.288Z,42.55
2023-03-17T06:52:11.093Z,43.29
2023-03-17T06:54:40.709Z,43.91
2023-03-17T06:57:09.533Z,44.10
2023-03-17T06:59:38.601Z,43.76
2023-03-17T07:02:07.772Z,42.63
2023-03-17T07:04:37.584Z,41.24
2023-03-17T07:07:06.750Z,40.98
2023-03-17T07:09:35.222Z,41.40
2023-03-17T07:12:05.732Z,42.07
2023-03-17T07:14:36.471Z,42.43
2023-03-17T07:17:06.326Z,41.93
2023-03-17T07:19:35.020Z,41.20
2023-03-17T07:22:03.501Z,40.99
2023-03-17T07:24:32.040Z,40.31
2023-03-17T07:27:00.546Z,39.48
2023-03-17T07:29:29.399Z,39.04
2023-03-17T07:31:58.032Z,38.54
2023-03-17T07:34:27.590Z,38.38
2023-03-17T07:36:56.064Z,37.44
2023-03-17T07:39:24.356Z,36.11
2023-03-17T07:41:54.666Z,35.93
2023-03-17T07:44:23.309Z,35.56
2023-03-17T07:46:52.021Z,35.53
2023-03-17T07:49:38.002Z,35.38
2023-03-17T07:52:09.499Z,34.72
2023-03-17T07:54:43.029Z,34.02
2023-03-17T07:57:13.345Z,32.94
2023-03-17T07:59:41.851Z,32.84
2023-03-17T08:02:16.011Z,33.09
2023-03-17T08:04:45.227Z,32.49
2023-03-17T08:07:14.995Z,32.33
2023-03-17T08:09:46.748Z,31.75
2023-03-17T08:12:15.953Z,31.71
2023-03-17T08:14:44.229Z,31.18
2023-03-17T08:17:13.598Z,30.26
2023-03-17T08:19:41.868Z,29.70
2023-03-17T08:22:13.044Z,30.08
2023-03-17T08:24:42.436Z,30.32
2023-03-17T08:27:11.047Z,30.57
2023-03-17T08:29:39.719Z,29.92
2023-03-17T08:32:09.473Z,29.52
2023-03-17T08:34:40.611Z,29.31
2023-03-17T08:37:12.092Z,29.05
2023-03-17T08:39:41.094Z,29.56
2023-03-17T08:42:09.486Z,29.90
2023-03-17T08:44:38.526Z,30.57
2023-03-17T08:47:07.419Z,30.94
2023-03-17T08:49:35.994Z,31.16
2023-03-17T08:52:04.921Z,30.93
2023-03-17T08:54:36.125Z,31.20
2023-03-17T08:57:04.947Z,31.66
2023-03-17T08:59:33.232Z,32.14
2023-03-17T09:02:02.035Z,32.16
2023-03-17T09:04:31.984Z,31.99
2023-03-17T09:07:04.437Z,32.19
2023-03-17T09:09:34.804Z,31.78
2023-03-17T09:12:05.691Z,31.58
2023-03-17T09:14:42.873Z,31.23
2023-03-17T09:17:13.805Z,31.27
2023-03-17T09:19:42.858Z,31.55
2023-03-17T09:22:15.375Z,31.85
2023-03-17T09:24:44.185Z,31.88
2023-03-17T09:27:12.909Z,31.90
2023-03-17T09:29:42.087Z,32.08
2023-03-17T09:32:13.092Z,32.38
2023-03-17T09:34:42.508Z,32.45
2023-03-17T09:37:14.019Z,32.58
2023-03-17T09:39:42.565Z,32.81
2023-03-17T09:42:38.675Z,32.78
2023-03-17T09:45:24.684Z,31.88
2023-03-17T09:48:33.596Z,31.65
2023-03-17T09:51:04.705Z,31.74
2023-03-17T09:53:36.158Z,32.28
2023-03-17T09:56:11.762Z,32.76
2023-03-17T09:58:49.535Z,32.62
2023-03-17T10:01:19.669Z,32.33
2023-03-17T10:03:50.046Z,32.46
2023-03-17T10:06:34.347Z,32.80
2023-03-17T10:09:14.557Z,33.08
2023-03-17T10:11:45.917Z,33.11
2023-03-17T10:14:38.327Z,33.28
2023-03-17T10:17:16.947Z,32.90
2023-03-17T10:19:49.053Z,32.80
2023-03-17T10:22:23.179Z,33.06
2023-03-17T10:24:57.087Z,32.91
2023-03-17T10:27:27.510Z,33.02
2023-03-17T10:29:57.807Z,32.90
2023-03-17T10:32:41.103Z,33.03
2023-03-17T10:35:12.172Z,32.89
2023-03-17T10:37:43.954Z,33.04
2023-03-17T10:40:26.205Z,33.58
2023-03-17T10:43:01.431Z,33.72
2023-03-17T10:45:33.429Z,33.40
2023-03-17T10:48:03.906Z,33.22
2023-03-17T10:50:35.815Z,33.21
2023-03-17T10:53:08.378Z,33.04
2023-03-17T10:55:44.399Z,33.00
2023-03-17T10:58:18.408Z,33.54
2023-03-17T11:00:57.287Z,33.82
2023-03-17T11:03:33.209Z,33.96
2023-03-17T11:06:06.595Z,34.22
2023-03-17T11:08:45.416Z,34.50
2023-03-17T11:14:37.556Z,34.84
2023-03-17T11:17:25.839Z,34.63
2023-03-17T11:20:03.671Z,34.16
2023-03-17T11:22:39.536Z,34.30
2023-03-17T11:25:14.269Z,34.53
2023-03-17T11:27:47.717Z,34.59
2023-03-17T11:30:23.521Z,34.85
2023-03-17T11:32:59.898Z,35.06
2023-03-17T11:35:55.165Z,35.22
2023-03-17T11:38:29.312Z,35.49
2023-03-17T11:41:13.268Z,35.41
2023-03-17T11:43:57.131Z,35.73
2023-03-17T11:46:28.476Z,35.46
2023-03-17T11:49:10.451Z,35.59
2023-03-17T11:51:56.882Z,35.62
2023-03-17T11:54:36.813Z,35.72
2023-03-17T11:57:11.535Z,35.94
2023-03-17T11:59:47.312Z,36.14
2023-03-17T12:02:24.694Z,35.91
2023-03-17T12:04:57.112Z,35.99
2023-03-17T12:07:29.609Z,36.27
2023-03-17T12:10:12.091Z,36.45
2023-03-17T12:12:46.173Z,36.35
2023-03-17T12:15:23.559Z,36.16
2023-03-17T12:17:57.627Z,36.31
2023-03-17T12:20:33.475Z,36.08
2023-03-17T12:23:12.132Z,36.64
2023-03-17T12:25:49.876Z,36.56
2023-03-17T12:28:24.951Z,36.69
2023-03-17T12:30:57.966Z,36.62
2023-03-17T12:33:31.619Z,36.71
2023-03-17T12:36:02.450Z,37.07
2023-03-17T12:38:37.972Z,37.11
2023-03-17T12:41:38.455Z,37.22
2023-03-17T12:44:17.991Z,37.05
2023-03-17T12:47:17.367Z,37.29
2023-03-17T12:50:13.652Z,37.26
2023-03-17T12:53:04.436Z,37.22
2023-03-17T12:55:36.367Z,37.34
2023-03-17T12:58:07.515Z,37.43
2023-03-17T13:00:50.011Z,37.38
2023-03-17T13:03:24.384Z,37.26
2023-03-17T13:05:58.082Z,37.44
2023-03-17T13:08:31.644Z,37.29
2023-03-17T13:11:46.393Z,37.33
2023-03-17T13:14:26.852Z,37.55
2023-03-17T13:17:04.567Z,37.67
2023-03-17T13:19:34.011Z,37.53
2023-03-17T13:22:33.063Z,37.32
2023-03-17T13:25:16.025Z,37.60
2023-03-17T13:27:46.063Z,37.50
2023-03-17T13:30:43.629Z,37.17
2023-03-17T13:33:30.685Z,37.50
2023-03-17T13:36:15.900Z,37.46
2023-03-17T13:39:18.331Z,37.58
2023-03-17T13:42:18.602Z,37.29
2023-03-17T13:45:09.919Z,37.77
2023-03-17T13:47:41.628Z,37.53
2023-03-17T13:50:15.703Z,37.43
2023-03-17T13:52:49.395Z,37.46
2023-03-17T13:55:37.362Z,37.45
2023-03-17T13:58:34.475Z,37.55
2023-03-17T14:01:09.377Z,37.59
2023-03-17T14:03:48.287Z,37.66
2023-03-17T14:06:19.914Z,37.60
2023-03-17T14:08:53.357Z,37.55
2023-03-17T14:11:33.530Z,37.53
2023-03-17T14:14:32.674Z,37.53
2023-03-17T14:17:10.119Z,37.57
2023-03-17T14:19:42.645Z,37.67
2023-03-17T14:22:22.997Z,37.44
2023-03-17T14:24:57.540Z,37.54
2023-03-17T14:27:35.100Z,37.64
2023-03-17T14:30:17.653Z,37.59
2023-03-17T14:32:50.368Z,37.39
2023-03-17T14:35:19.540Z,37.70
2023-03-17T14:37:47.818Z,37.56
2023-03-17T14:40:26.601Z,37.46
2023-03-17T14:42:57.066Z,37.55
2023-03-17T14:45:32.081Z,37.44
2023-03-17T14:48:02.546Z,37.52
2023-03-17T14:50:32.417Z,37.56
2023-03-17T14:53:06.584Z,37.69
2023-03-17T14:55:42.714Z,37.66
2023-03-17T14:58:21.264Z,37.68
2023-03-17T15:00:57.845Z,37.75
2023-03-17T15:03:32.442Z,37.92
2023-03-17T15:06:21.277Z,38.02
2023-03-17T15:08:51.994Z,37.73
2023-03-17T15:11:24.344Z,37.63
2023-03-17T15:13:56.862Z,37.67
2023-03-17T15:16:29.939Z,37.92
2023-03-17T15:19:17.635Z,37.70
2023-03-17T15:21:47.253Z,37.87
2023-03-17T15:24:36.217Z,37.85
2023-03-17T15:27:14.017Z,37.75
2023-03-17T15:29:42.695Z,37.88
2023-03-17T15:32:14.722Z,37.88
2023-03-17T15:34:43.297Z,38.02
2023-03-17T15:37:20.823Z,38.03
2023-03-17T15:39:50.844Z,37.85
2023-03-17T15:42:22.161Z,37.84
2023-03-17T15:44:53.387Z,37.85
2023-03-17T15:47:28.181Z,38.00
2023-03-17T15:50:00.704Z,37.91
2023-03-17T15:52:33.521Z,37.69
2023-03-17T15:55:05.090Z,37.90
2023-03-17T15:57:34.328Z,37.70
2023-03-17T16:00:03.675Z,37.75
2023-03-17T16:02:41.379Z,37.86
2023-03-17T16:05:21.029Z,37.83
2023-03-17T16:07:52.326Z,37.89
2023-03-17T16:10:22.998Z,37.98
2023-03-17T16:12:55.096Z,38.08
2023-03-17T16:15:25.487Z,38.24
2023-03-17T16:17:57.756Z,38.34
2023-03-17T16:20:28.239Z,38.31
2023-03-17T16:22:58.713Z,38.46
2023-03-17T16:25:28.881Z,38.49
2023-03-17T16:27:58.889Z,38.42
2023-03-17T16:30:29.889Z,38.38
2023-03-17T16:33:02.329Z,38.45
2023-03-17T16:35:31.583Z,38.64
2023-03-17T16:38:00.205Z,38.74
2023-03-17T16:40:33.686Z,38.73
2023-03-17T16:43:12.950Z,38.83
2023-03-17T16:45:44.239Z,38.86
2023-03-17T16:48:17.750Z,38.86
2023-03-17T16:50:46.534Z,39.01
2023-03-17T16:53:14.849Z,39.01
2023-03-17T16:55:44.167Z,39.00
2023-03-17T16:58:21.281Z,38.99
2023-03-17T17:00:51.374Z,39.08
2023-03-17T17:06:03.469Z,39.31
2023-03-17T17:08:31.744Z,39.25
2023-03-17T17:11:00.124Z,39.32
2023-03-17T17:13:30.848Z,39.42
2023-03-17T17:16:00.804Z,39.28
2023-03-17T17:18:29.168Z,39.30
2023-03-17T17:20:57.451Z,39.39
2023-03-17T17:23:27.509Z,39.50
2023-03-17T17:25:57.880Z,39.60
2023-03-17T17:28:26.604Z,39.65
2023-03-17T17:30:56.122Z,39.79
2023-03-17T17:33:25.808Z,39.87
2023-03-17T17:36:10.825Z,39.84
2023-03-17T17:38:39.406Z,40.09
2023-03-17T17:41:09.163Z,40.11
2023-03-17T17:43:37.751Z,40.17
2023-03-17T17:46:12.073Z,40.27
2023-03-17T17:48:40.792Z,40.38
2023-03-17T17:51:18.657Z,40.43
2023-03-17T17:53:58.470Z,40.54
2023-03-17T17:56:38.562Z,40.58
2023-03-17T17:59:58.755Z,40.49
2023-03-17T18:02:27.184Z,40.63
2023-03-17T18:04:55.667Z,40.64
2023-03-17T18:07:41.220Z,40.65
2023-03-17T18:10:18.133Z,40.70
2023-03-17T18:12:48.389Z,40.86
2023-03-17T18:15:17.626Z,40.85
2023-03-17T18:17:45.970Z,40.94
2023-03-17T18:20:16.725Z,41.04
2023-03-17T18:22:45.486Z,40.99
2023-03-17T18:25:16.718Z,41.09
2023-03-17T18:27:46.662Z,41.13
2023-03-17T18:30:25.788Z,41.23
2023-03-17T18:32:58.712Z,41.34
2023-03-17T18:35:29.437Z,41.24
2023-03-17T18:37:58.843Z,41.43
2023-03-17T18:40:27.545Z,41.40
2023-03-17T18:42:57.118Z,41.53
2023-03-17T18:45:25.890Z,41.57
2023-03-17T18:47:54.142Z,41.67
2023-03-17T18:50:23.640Z,41.80
2023-03-17T18:52:56.066Z,41.78
2023-03-17T18:55:24.958Z,41.73
2023-03-17T18:57:54.360Z,41.74
2023-03-17T19:00:24.775Z,41.87
2023-03-17T19:02:55.462Z,41.87
2023-03-17T19:05:25.051Z,41.89
2023-03-17T19:07:53.970Z,41.81
2023-03-17T19:10:22.418Z,42.00
2023-03-17T19:12:51.647Z,41.97
2023-03-17T19:15:21.488Z,42.07
2023-03-17T19:17:50.611Z,42.06
2023-03-17T19:20:19.636Z,42.11
2023-03-17T19:22:48.260Z,42.12
2023-03-17T19:25:17.355Z,42.30
2023-03-17T19:27:45.570Z,42.17
2023-03-17T19:30:15.221Z,42.40
2023-03-17T19:32:43.561Z,42.43
2023-03-17T19:35:12.015Z,42.40
2023-03-17T19:37:40.398Z,42.47
2023-03-17T19:40:12.659Z,42.55
2023-03-17T19:42:40.995Z,42.59
2023-03-17T19:45:10.959Z,42.69
2023-03-17T19:47:40.156Z,42.61
2023-03-17T19:50:11.024Z,42.79
2023-03-17T19:52:39.494Z,42.67
2023-03-17T19:55:10.085Z,42.73
2023-03-17T19:57:38.327Z,42.65
2023-03-17T20:00:11.190Z,42.95
2023-03-17T20:02:39.884Z,43.01
2023-03-17T20:05:09.582Z,42.86
2023-03-17T20:07:38.028Z,42.83
2023-03-17T20:10:08.532Z,43.00
2023-03-17T20:12:37.604Z,42.94
2023-03-17T20:15:08.395Z,43.15
2023-03-17T20:17:36.838Z,43.09
2023-03-17T20:20:08.620Z,43.24
2023-03-17T20:22:37.253Z,43.18
2023-03-17T20:25:09.761Z,43.13
2023-03-17T20:27:38.384Z,43.20
2023-03-17T20:30:11.527Z,43.33
2023-03-17T20:32:40.632Z,43.39
2023-03-17T20:35:10.134Z,43.54
2023-03-17T20:37:39.124Z,43.50
2023-03-17T20:40:10.205Z,43.35
2023-03-17T20:42:38.670Z,43.36
2023-03-17T20:45:08.408Z,43.38
2023-03-17T20:47:37.042Z,43.64
2023-03-17T20:50:08.188Z,43.68
2023-03-17T20:52:36.764Z,43.89
2023-03-17T20:55:06.396Z,44.05
2023-03-17T20:57:35.429Z,43.96
2023-03-17T21:00:04.584Z,44.00
2023-03-17T21:02:32.803Z,43.65
2023-03-17T21:05:02.365Z,43.87
2023-03-17T21:07:30.848Z,43.88
2023-03-17T21:10:01.534Z,44.02
2023-03-17T21:12:31.204Z,43.84
2023-03-17T21:15:00.130Z,43.83
2023-03-17T21:17:28.717Z,44.19
2023-03-17T21:19:56.995Z,44.38
2023-03-17T21:22:25.385Z,44.49
2023-03-17T21:24:54.852Z,44.35
2023-03-17T21:27:23.506Z,44.49
2023-03-17T21:29:52.040Z,44.54
2023-03-17T21:32:20.387Z,44.55
2023-03-17T21:34:48.796Z,44.68
2023-03-17T21:37:17.934Z,44.70
2023-03-17T21:39:46.190Z,44.72
2023-03-17T21:42:14.571Z,44.55
2023-03-17T21:44:45.146Z,44.70
2023-03-17T21:47:13.616Z,44.88
2023-03-17T21:49:42.306Z,44.75
2023-03-17T21:52:11.939Z,44.95
2023-03-17T21:54:42.327Z,44.80
2023-03-17T21:57:11.931Z,44.68
2023-03-17T21:59:40.617Z,44.67
2023-03-17T22:02:12.163Z,45.04
2023-03-17T22:04:41.098Z,44.77
2023-03-17T22:07:09.905Z,44.80
2023-03-17T22:09:38.440Z,45.06
2023-03-17T22:12:07.577Z,44.87
2023-03-17T22:14:36.185Z,45.11
2023-03-17T22:17:05.262Z,45.19
2023-03-17T22:19:33.829Z,45.09
2023-03-17T22:22:02.082Z,45.06
2023-03-17T22:24:31.818Z,44.84
2023-03-17T22:27:00.102Z,44.74
2023-03-17T22:29:28.627Z,45.07
2023-03-17T22:31:57.023Z,44.67
2023-03-17T22:34:25.784Z,44.76
2023-03-17T22:36:54.308Z,44.77
2023-03-17T22:39:22.631Z,44.82
2023-03-17T22:41:50.913Z,44.99
2023-03-17T22:44:19.254Z,45.12
2023-03-17T22:46:47.619Z,45.04
2023-03-17T22:49:16.254Z,45.29
2023-03-17T22:51:46.045Z,44.87
2023-03-17T22:54:14.248Z,44.80
2023-03-17T22:56:42.568Z,44.86
2023-03-17T22:59:10.904Z,44.84
2023-03-17T23:01:39.792Z,44.67
2023-03-17T23:04:08.867Z,44.75
2023-03-17T23:06:37.638Z,44.83
2023-03-17T23:09:06.983Z,45.08
2023-03-17T23:11:36.532Z,44.61
2023-03-17T23:14:05.127Z,44.85
2023-03-17T23:16:33.559Z,44.43
2023-03-17T23:19:02.252Z,44.69
2023-03-17T23:21:33.548Z,44.67
2023-03-17T23:24:03.218Z,44.56
2023-03-17T23:26:32.212Z,44.55
2023-03-17T23:29:00.590Z,44.48
2023-03-17T23:31:28.917Z,44.75
2023-03-17T23:33:57.640Z,44.48
2023-03-17T23:36:26.475Z,44.57
2023-03-17T23:38:54.665Z,44.41
2023-03-17T23:41:22.917Z,44.73
2023-03-17T23:43:51.266Z,44.67
2023-03-17T23:46:22.533Z,44.48
2023-03-17T23:48:51.816Z,44.33
2023-03-17T23:51:20.705Z,44.73
2023-03-17T23:53:49.937Z,44.35
2023-03-17T23:56:20.216Z,44.17
2023-03-17T23:58:49.450Z,44.41
